sensor_id;sensor_type;location;lat;lon;timestamp;P1;durP1;ratioP1;P2;durP2;ratioP2
69627;SDS011;56850;51.984;5.088;2023-02-15T00:00:13;34.73;;;21.10;;
69627;SDS011;56850;51.984;5.088;2023-02-15T00:02:40;36.17;;;20.52;;
69627;SDS011;56850;51.984;5.088;2023-02-15T00:05:08;34.90;;;21.38;;
69627;SDS011;56850;51.984;5.088;2023-02-15T00:07:35;37.70;;;21.77;;
69627;SDS011;56850;51.984;5.088;2023-02-15T00:10:02;38.22;;;22.00;;
69627;SDS011;56850;51.984;5.088;2023-02-15T00:12:29;34.80;;;22.20;;
69627;SDS011;56850;51.984;5.088;2023-02-15T00:14:56;40.80;;;20.73;;
69627;SDS011;56850;51.984;5.088;2023-02-15T00:17:23;33.88;;;20.92;;
69627;SDS011;56850;51.984;5.088;2023-02-15T00:19:50;30.45;;;20.60;;
69627;SDS011;56850;51.984;5.088;2023-02-15T00:22:17;35.00;;;20.25;;
69627;SDS011;56850;51.984;5.088;2023-02-15T00:24:44;35.23;;;20.47;;
69627;SDS011;56850;51.984;5.088;2023-02-15T00:27:11;34.03;;;19.92;;
69627;SDS011;56850;51.984;5.088;2023-02-15T00:29:38;38.25;;;21.92;;
69627;SDS011;56850;51.984;5.088;2023-02-15T00:32:05;32.97;;;21.60;;
69627;SDS011;56850;51.984;5.088;2023-02-15T00:34:32;31.27;;;20.27;;
69627;SDS011;56850;51.984;5.088;2023-02-15T00:36:59;31.13;;;20.10;;
69627;SDS011;56850;51.984;5.088;2023-02-15T00:39:26;32.33;;;20.95;;
69627;SDS011;56850;51.984;5.088;2023-02-15T00:41:55;33.40;;;21.20;;
69627;SDS011;56850;51.984;5.088;2023-02-15T00:44:22;30.58;;;20.05;;
69627;SDS011;56850;51.984;5.088;2023-02-15T00:46:49;32.67;;;19.60;;
69627;SDS011;56850;51.984;5.088;2023-02-15T00:49:15;34.03;;;20.67;;
69627;SDS011;56850;51.984;5.088;2023-02-15T00:51:42;35.22;;;21.10;;
69627;SDS011;56850;51.984;5.088;2023-02-15T00:54:09;31.75;;;20.10;;
69627;SDS011;56850;51.984;5.088;2023-02-15T00:56:36;34.80;;;21.10;;
69627;SDS011;56850;51.984;5.088;2023-02-15T00:59:03;34.78;;;21.23;;
69627;SDS011;56850;51.984;5.088;2023-02-15T01:01:31;34.00;;;21.60;;
69627;SDS011;56850;51.984;5.088;2023-02-15T01:03:58;35.13;;;21.73;;
69627;SDS011;56850;51.984;5.088;2023-02-15T01:06:28;31.45;;;19.75;;
69627;SDS011;56850;51.984;5.088;2023-02-15T01:08:55;34.50;;;21.42;;
69627;SDS011;56850;51.984;5.088;2023-02-15T01:11:22;34.05;;;20.77;;
69627;SDS011;56850;51.984;5.088;2023-02-15T01:13:56;35.23;;;21.63;;
69627;SDS011;56850;51.984;5.088;2023-02-15T01:16:25;34.13;;;21.05;;
69627;SDS011;56850;51.984;5.088;2023-02-15T01:18:53;34.08;;;21.27;;
69627;SDS011;56850;51.984;5.088;2023-02-15T01:21:21;33.13;;;21.52;;
69627;SDS011;56850;51.984;5.088;2023-02-15T01:23:49;39.58;;;21.55;;
69627;SDS011;56850;51.984;5.088;2023-02-15T01:26:16;31.73;;;20.77;;
69627;SDS011;56850;51.984;5.088;2023-02-15T01:28:44;34.55;;;20.92;;
69627;SDS011;56850;51.984;5.088;2023-02-15T01:31:13;31.73;;;20.48;;
69627;SDS011;56850;51.984;5.088;2023-02-15T01:33:44;33.17;;;20.58;;
69627;SDS011;56850;51.984;5.088;2023-02-15T01:36:12;31.75;;;19.27;;
69627;SDS011;56850;51.984;5.088;2023-02-15T01:38:39;32.50;;;20.37;;
69627;SDS011;56850;51.984;5.088;2023-02-15T01:41:06;34.38;;;20.60;;
69627;SDS011;56850;51.984;5.088;2023-02-15T01:43:57;34.65;;;20.45;;
69627;SDS011;56850;51.984;5.088;2023-02-15T01:46:27;32.15;;;19.52;;
69627;SDS011;56850;51.984;5.088;2023-02-15T01:49:10;31.42;;;19.27;;
69627;SDS011;56850;51.984;5.088;2023-02-15T01:51:41;33.20;;;20.00;;
69627;SDS011;56850;51.984;5.088;2023-02-15T01:54:22;31.77;;;20.33;;
69627;SDS011;56850;51.984;5.088;2023-02-15T01:56:55;35.35;;;21.00;;
69627;SDS011;56850;51.984;5.088;2023-02-15T01:59:29;30.92;;;20.48;;
69627;SDS011;56850;51.984;5.088;2023-02-15T02:01:59;34.70;;;21.10;;
69627;SDS011;56850;51.984;5.088;2023-02-15T02:04:33;36.70;;;20.50;;
69627;SDS011;56850;51.984;5.088;2023-02-15T02:07:08;37.10;;;20.02;;
69627;SDS011;56850;51.984;5.088;2023-02-15T02:09:38;31.33;;;20.52;;
69627;SDS011;56850;51.984;5.088;2023-02-15T02:12:06;34.22;;;19.52;;
69627;SDS011;56850;51.984;5.088;2023-02-15T02:14:34;33.80;;;20.15;;
69627;SDS011;56850;51.984;5.088;2023-02-15T02:31:23;30.37;;;19.13;;
69627;SDS011;56850;51.984;5.088;2023-02-15T02:36:41;28.42;;;18.02;;
69627;SDS011;56850;51.984;5.088;2023-02-15T02:39:42;32.63;;;19.00;;
69627;SDS011;56850;51.984;5.088;2023-02-15T02:42:38;35.40;;;19.20;;
69627;SDS011;56850;51.984;5.088;2023-02-15T02:47:52;31.63;;;19.35;;
69627;SDS011;56850;51.984;5.088;2023-02-15T02:50:38;29.80;;;19.27;;
69627;SDS011;56850;51.984;5.088;2023-02-15T02:53:08;30.15;;;18.00;;
69627;SDS011;56850;51.984;5.088;2023-02-15T02:55:39;35.10;;;19.42;;
69627;SDS011;56850;51.984;5.088;2023-02-15T02:58:26;35.30;;;20.20;;
69627;SDS011;56850;51.984;5.088;2023-02-15T03:01:09;33.30;;;19.02;;
69627;SDS011;56850;51.984;5.088;2023-02-15T03:03:53;35.75;;;19.65;;
69627;SDS011;56850;51.984;5.088;2023-02-15T03:06:28;33.22;;;19.52;;
69627;SDS011;56850;51.984;5.088;2023-02-15T03:09:12;35.85;;;19.50;;
69627;SDS011;56850;51.984;5.088;2023-02-15T03:11:43;31.23;;;19.07;;
69627;SDS011;56850;51.984;5.088;2023-02-15T03:14:13;35.00;;;20.17;;
69627;SDS011;56850;51.984;5.088;2023-02-15T03:16:43;34.83;;;19.23;;
69627;SDS011;56850;51.984;5.088;2023-02-15T03:19:15;29.98;;;19.05;;
69627;SDS011;56850;51.984;5.088;2023-02-15T03:21:49;33.83;;;18.70;;
69627;SDS011;56850;51.984;5.088;2023-02-15T03:24:37;29.53;;;18.30;;
69627;SDS011;56850;51.984;5.088;2023-02-15T03:27:12;32.97;;;18.25;;
69627;SDS011;56850;51.984;5.088;2023-02-15T03:29:45;30.65;;;18.75;;
69627;SDS011;56850;51.984;5.088;2023-02-15T03:32:15;33.10;;;18.40;;
69627;SDS011;56850;51.984;5.088;2023-02-15T03:34:44;31.27;;;18.20;;
69627;SDS011;56850;51.984;5.088;2023-02-15T03:45:44;32.10;;;18.30;;
69627;SDS011;56850;51.984;5.088;2023-02-15T03:48:25;31.85;;;18.77;;
69627;SDS011;56850;51.984;5.088;2023-02-15T03:50:57;33.30;;;18.77;;
69627;SDS011;56850;51.984;5.088;2023-02-15T03:53:50;34.45;;;19.50;;
69627;SDS011;56850;51.984;5.088;2023-02-15T03:56:19;32.10;;;19.55;;
69627;SDS011;56850;51.984;5.088;2023-02-15T03:58:46;32.72;;;19.90;;
69627;SDS011;56850;51.984;5.088;2023-02-15T04:01:39;38.63;;;20.23;;
69627;SDS011;56850;51.984;5.088;2023-02-15T04:07:04;30.75;;;18.42;;
69627;SDS011;56850;51.984;5.088;2023-02-15T04:09:33;33.47;;;18.95;;
69627;SDS011;56850;51.984;5.088;2023-02-15T04:12:19;32.30;;;18.50;;
69627;SDS011;56850;51.984;5.088;2023-02-15T04:14:46;33.92;;;18.98;;
69627;SDS011;56850;51.984;5.088;2023-02-15T04:17:32;31.10;;;18.73;;
69627;SDS011;56850;51.984;5.088;2023-02-15T04:19:59;33.85;;;19.52;;
69627;SDS011;56850;51.984;5.088;2023-02-15T04:22:44;33.40;;;19.00;;
69627;SDS011;56850;51.984;5.088;2023-02-15T04:25:30;33.15;;;18.42;;
69627;SDS011;56850;51.984;5.088;2023-02-15T04:27:57;35.67;;;19.17;;
69627;SDS011;56850;51.984;5.088;2023-02-15T04:30:24;30.53;;;18.30;;
69627;SDS011;56850;51.984;5.088;2023-02-15T04:32:53;31.45;;;19.02;;
69627;SDS011;56850;51.984;5.088;2023-02-15T04:35:21;31.73;;;19.08;;
69627;SDS011;56850;51.984;5.088;2023-02-15T04:37:48;30.85;;;18.25;;
69627;SDS011;56850;51.984;5.088;2023-02-15T04:40:15;30.63;;;17.70;;
69627;SDS011;56850;51.984;5.088;2023-02-15T04:42:46;35.03;;;19.37;;
69627;SDS011;56850;51.984;5.088;2023-02-15T04:45:15;29.23;;;17.98;;
69627;SDS011;56850;51.984;5.088;2023-02-15T04:47:43;30.98;;;18.17;;
69627;SDS011;56850;51.984;5.088;2023-02-15T04:50:10;30.42;;;17.52;;
69627;SDS011;56850;51.984;5.088;2023-02-15T04:52:37;31.30;;;18.33;;
69627;SDS011;56850;51.984;5.088;2023-02-15T04:55:04;31.40;;;18.53;;
69627;SDS011;56850;51.984;5.088;2023-02-15T04:57:32;32.75;;;17.17;;
69627;SDS011;56850;51.984;5.088;2023-02-15T04:59:58;29.00;;;17.45;;
69627;SDS011;56850;51.984;5.088;2023-02-15T05:02:25;28.77;;;16.48;;
69627;SDS011;56850;51.984;5.088;2023-02-15T05:04:52;32.67;;;17.85;;
69627;SDS011;56850;51.984;5.088;2023-02-15T05:07:19;29.23;;;17.93;;
69627;SDS011;56850;51.984;5.088;2023-02-15T05:09:46;28.80;;;16.98;;
69627;SDS011;56850;51.984;5.088;2023-02-15T05:12:14;31.95;;;18.10;;
69627;SDS011;56850;51.984;5.088;2023-02-15T05:14:40;25.48;;;16.30;;
69627;SDS011;56850;51.984;5.088;2023-02-15T05:17:07;28.70;;;17.20;;
69627;SDS011;56850;51.984;5.088;2023-02-15T05:19:34;29.33;;;17.13;;
69627;SDS011;56850;51.984;5.088;2023-02-15T05:22:01;27.90;;;17.35;;
69627;SDS011;56850;51.984;5.088;2023-02-15T05:24:28;30.17;;;16.77;;
69627;SDS011;56850;51.984;5.088;2023-02-15T05:27:14;28.85;;;17.33;;
69627;SDS011;56850;51.984;5.088;2023-02-15T05:29:59;27.98;;;18.08;;
69627;SDS011;56850;51.984;5.088;2023-02-15T05:32:26;32.00;;;17.60;;
69627;SDS011;56850;51.984;5.088;2023-02-15T05:34:53;29.50;;;17.85;;
69627;SDS011;56850;51.984;5.088;2023-02-15T05:37:20;30.27;;;18.33;;
69627;SDS011;56850;51.984;5.088;2023-02-15T05:39:47;29.48;;;17.02;;
69627;SDS011;56850;51.984;5.088;2023-02-15T05:42:14;32.90;;;17.42;;
69627;SDS011;56850;51.984;5.088;2023-02-15T05:44:41;30.83;;;18.07;;
69627;SDS011;56850;51.984;5.088;2023-02-15T05:47:08;28.35;;;18.20;;
69627;SDS011;56850;51.984;5.088;2023-02-15T05:49:35;31.20;;;17.65;;
69627;SDS011;56850;51.984;5.088;2023-02-15T05:52:02;28.30;;;17.65;;
69627;SDS011;56850;51.984;5.088;2023-02-15T05:54:30;32.75;;;18.00;;
69627;SDS011;56850;51.984;5.088;2023-02-15T05:56:57;29.73;;;17.93;;
69627;SDS011;56850;51.984;5.088;2023-02-15T05:59:23;30.48;;;16.98;;
69627;SDS011;56850;51.984;5.088;2023-02-15T06:01:50;36.67;;;19.10;;
69627;SDS011;56850;51.984;5.088;2023-02-15T06:04:17;31.25;;;17.23;;
69627;SDS011;56850;51.984;5.088;2023-02-15T06:06:44;29.13;;;16.90;;
69627;SDS011;56850;51.984;5.088;2023-02-15T06:09:11;31.00;;;16.60;;
69627;SDS011;56850;51.984;5.088;2023-02-15T06:11:39;27.95;;;17.25;;
69627;SDS011;56850;51.984;5.088;2023-02-15T06:14:06;30.15;;;18.02;;
69627;SDS011;56850;51.984;5.088;2023-02-15T06:16:32;31.48;;;17.52;;
69627;SDS011;56850;51.984;5.088;2023-02-15T06:18:59;30.15;;;17.75;;
69627;SDS011;56850;51.984;5.088;2023-02-15T06:21:28;29.20;;;17.63;;
69627;SDS011;56850;51.984;5.088;2023-02-15T06:23:56;36.28;;;18.20;;
69627;SDS011;56850;51.984;5.088;2023-02-15T06:26:22;34.92;;;17.27;;
69627;SDS011;56850;51.984;5.088;2023-02-15T06:28:50;31.00;;;18.15;;
69627;SDS011;56850;51.984;5.088;2023-02-15T06:31:19;31.20;;;17.90;;
69627;SDS011;56850;51.984;5.088;2023-02-15T06:33:46;29.37;;;17.60;;
69627;SDS011;56850;51.984;5.088;2023-02-15T06:36:13;31.85;;;18.10;;
69627;SDS011;56850;51.984;5.088;2023-02-15T06:38:39;27.73;;;16.45;;
69627;SDS011;56850;51.984;5.088;2023-02-15T06:41:06;30.70;;;18.35;;
69627;SDS011;56850;51.984;5.088;2023-02-15T06:43:33;33.40;;;17.98;;
69627;SDS011;56850;51.984;5.088;2023-02-15T06:46:00;36.97;;;17.93;;
69627;SDS011;56850;51.984;5.088;2023-02-15T06:48:28;29.83;;;18.05;;
69627;SDS011;56850;51.984;5.088;2023-02-15T06:50:55;33.00;;;17.90;;
69627;SDS011;56850;51.984;5.088;2023-02-15T06:53:22;30.50;;;17.73;;
69627;SDS011;56850;51.984;5.088;2023-02-15T06:55:49;30.92;;;17.17;;
69627;SDS011;56850;51.984;5.088;2023-02-15T06:58:16;33.00;;;17.33;;
69627;SDS011;56850;51.984;5.088;2023-02-15T07:00:43;31.10;;;17.77;;
69627;SDS011;56850;51.984;5.088;2023-02-15T07:03:12;35.35;;;17.60;;
69627;SDS011;56850;51.984;5.088;2023-02-15T07:05:39;31.50;;;18.42;;
69627;SDS011;56850;51.984;5.088;2023-02-15T07:08:06;33.42;;;18.55;;
69627;SDS011;56850;51.984;5.088;2023-02-15T07:10:33;30.23;;;18.33;;
69627;SDS011;56850;51.984;5.088;2023-02-15T07:13:00;34.17;;;18.08;;
69627;SDS011;56850;51.984;5.088;2023-02-15T07:15:27;32.38;;;18.13;;
69627;SDS011;56850;51.984;5.088;2023-02-15T07:17:53;30.17;;;18.00;;
69627;SDS011;56850;51.984;5.088;2023-02-15T07:20:21;33.28;;;18.20;;
69627;SDS011;56850;51.984;5.088;2023-02-15T07:22:50;32.67;;;18.93;;
69627;SDS011;56850;51.984;5.088;2023-02-15T07:25:17;34.63;;;18.70;;
69627;SDS011;56850;51.984;5.088;2023-02-15T07:27:44;34.60;;;19.67;;
69627;SDS011;56850;51.984;5.088;2023-02-15T07:30:12;34.17;;;18.30;;
69627;SDS011;56850;51.984;5.088;2023-02-15T07:32:41;34.47;;;19.55;;
69627;SDS011;56850;51.984;5.088;2023-02-15T07:35:31;34.50;;;19.63;;
69627;SDS011;56850;51.984;5.088;2023-02-15T07:37:58;32.35;;;19.65;;
69627;SDS011;56850;51.984;5.088;2023-02-15T07:40:25;37.60;;;19.95;;
69627;SDS011;56850;51.984;5.088;2023-02-15T07:42:52;35.95;;;19.38;;
69627;SDS011;56850;51.984;5.088;2023-02-15T07:45:21;29.45;;;18.52;;
69627;SDS011;56850;51.984;5.088;2023-02-15T07:47:48;32.97;;;18.97;;
69627;SDS011;56850;51.984;5.088;2023-02-15T07:50:15;39.78;;;18.02;;
69627;SDS011;56850;51.984;5.088;2023-02-15T07:52:42;35.17;;;19.25;;
69627;SDS011;56850;51.984;5.088;2023-02-15T07:55:09;34.42;;;19.35;;
69627;SDS011;56850;51.984;5.088;2023-02-15T07:57:45;33.92;;;19.40;;
69627;SDS011;56850;51.984;5.088;2023-02-15T08:00:14;32.90;;;18.83;;
69627;SDS011;56850;51.984;5.088;2023-02-15T08:02:49;31.45;;;19.15;;
69627;SDS011;56850;51.984;5.088;2023-02-15T08:05:42;36.67;;;19.10;;
69627;SDS011;56850;51.984;5.088;2023-02-15T08:08:11;32.42;;;17.83;;
69627;SDS011;56850;51.984;5.088;2023-02-15T08:11:04;38.40;;;21.35;;
69627;SDS011;56850;51.984;5.088;2023-02-15T08:16:26;38.72;;;20.10;;
69627;SDS011;56850;51.984;5.088;2023-02-15T08:18:58;35.97;;;20.15;;
69627;SDS011;56850;51.984;5.088;2023-02-15T08:21:26;35.63;;;20.02;;
69627;SDS011;56850;51.984;5.088;2023-02-15T08:23:55;32.22;;;19.10;;
69627;SDS011;56850;51.984;5.088;2023-02-15T08:26:22;34.40;;;20.93;;
69627;SDS011;56850;51.984;5.088;2023-02-15T08:28:50;35.03;;;20.65;;
69627;SDS011;56850;51.984;5.088;2023-02-15T08:31:18;39.05;;;20.55;;
69627;SDS011;56850;51.984;5.088;2023-02-15T08:33:46;38.38;;;20.65;;
69627;SDS011;56850;51.984;5.088;2023-02-15T08:36:15;34.97;;;20.00;;
69627;SDS011;56850;51.984;5.088;2023-02-15T08:38:45;37.90;;;20.20;;
69627;SDS011;56850;51.984;5.088;2023-02-15T08:41:13;36.65;;;19.95;;
69627;SDS011;56850;51.984;5.088;2023-02-15T08:43:42;31.98;;;20.23;;
69627;SDS011;56850;51.984;5.088;2023-02-15T08:46:10;33.55;;;19.67;;
69627;SDS011;56850;51.984;5.088;2023-02-15T08:48:38;34.58;;;20.08;;
69627;SDS011;56850;51.984;5.088;2023-02-15T08:51:06;34.37;;;20.30;;
69627;SDS011;56850;51.984;5.088;2023-02-15T08:53:34;36.70;;;19.33;;
69627;SDS011;56850;51.984;5.088;2023-02-15T08:56:01;38.50;;;20.50;;
69627;SDS011;56850;51.984;5.088;2023-02-15T08:58:28;39.65;;;21.88;;
69627;SDS011;56850;51.984;5.088;2023-02-15T09:00:57;35.85;;;20.95;;
69627;SDS011;56850;51.984;5.088;2023-02-15T09:03:24;33.93;;;21.23;;
69627;SDS011;56850;51.984;5.088;2023-02-15T09:05:56;34.55;;;20.40;;
69627;SDS011;56850;51.984;5.088;2023-02-15T09:08:24;36.50;;;21.58;;
69627;SDS011;56850;51.984;5.088;2023-02-15T09:10:52;38.10;;;20.80;;
69627;SDS011;56850;51.984;5.088;2023-02-15T09:13:19;44.25;;;22.05;;
69627;SDS011;56850;51.984;5.088;2023-02-15T09:15:46;33.67;;;18.97;;
69627;SDS011;56850;51.984;5.088;2023-02-15T09:18:13;42.78;;;23.05;;
69627;SDS011;56850;51.984;5.088;2023-02-15T09:20:43;36.03;;;22.05;;
69627;SDS011;56850;51.984;5.088;2023-02-15T09:23:11;35.42;;;21.67;;
69627;SDS011;56850;51.984;5.088;2023-02-15T09:25:52;36.97;;;21.88;;
69627;SDS011;56850;51.984;5.088;2023-02-15T09:28:19;42.07;;;23.60;;
69627;SDS011;56850;51.984;5.088;2023-02-15T09:30:46;32.70;;;19.27;;
69627;SDS011;56850;51.984;5.088;2023-02-15T09:33:13;36.22;;;20.83;;
69627;SDS011;56850;51.984;5.088;2023-02-15T09:35:39;43.85;;;23.15;;
69627;SDS011;56850;51.984;5.088;2023-02-15T09:38:06;39.38;;;22.70;;
69627;SDS011;56850;51.984;5.088;2023-02-15T09:40:35;43.97;;;23.77;;
69627;SDS011;56850;51.984;5.088;2023-02-15T09:43:18;38.67;;;22.20;;
69627;SDS011;56850;51.984;5.088;2023-02-15T09:46:09;39.35;;;23.23;;
69627;SDS011;56850;51.984;5.088;2023-02-15T09:48:45;41.20;;;22.77;;
69627;SDS011;56850;51.984;5.088;2023-02-15T09:57:31;40.60;;;22.20;;
69627;SDS011;56850;51.984;5.088;2023-02-15T10:17:13;39.88;;;22.35;;
69627;SDS011;56850;51.984;5.088;2023-02-15T10:19:52;40.30;;;24.08;;
69627;SDS011;56850;51.984;5.088;2023-02-15T10:28:19;42.70;;;23.00;;
69627;SDS011;56850;51.984;5.088;2023-02-15T10:30:58;42.28;;;22.83;;
69627;SDS011;56850;51.984;5.088;2023-02-15T10:33:42;42.38;;;23.50;;
69627;SDS011;56850;51.984;5.088;2023-02-15T10:38:48;40.25;;;23.25;;
69627;SDS011;56850;51.984;5.088;2023-02-15T10:53:13;41.58;;;23.85;;
69627;SDS011;56850;51.984;5.088;2023-02-15T10:58:43;43.17;;;23.88;;
69627;SDS011;56850;51.984;5.088;2023-02-15T11:01:34;43.08;;;23.90;;
69627;SDS011;56850;51.984;5.088;2023-02-15T11:04:09;41.73;;;23.73;;
69627;SDS011;56850;51.984;5.088;2023-02-15T11:07:23;47.50;;;25.63;;
69627;SDS011;56850;51.984;5.088;2023-02-15T11:10:00;45.83;;;25.15;;
69627;SDS011;56850;51.984;5.088;2023-02-15T11:12:37;45.58;;;23.60;;
69627;SDS011;56850;51.984;5.088;2023-02-15T11:15:20;44.10;;;25.70;;
69627;SDS011;56850;51.984;5.088;2023-02-15T11:17:55;42.23;;;25.10;;
69627;SDS011;56850;51.984;5.088;2023-02-15T11:20:33;40.85;;;25.33;;
69627;SDS011;56850;51.984;5.088;2023-02-15T11:23:12;42.60;;;25.38;;
69627;SDS011;56850;51.984;5.088;2023-02-15T11:25:46;42.78;;;24.65;;
69627;SDS011;56850;51.984;5.088;2023-02-15T11:28:39;42.22;;;24.75;;
69627;SDS011;56850;51.984;5.088;2023-02-15T11:31:21;43.73;;;25.70;;
69627;SDS011;56850;51.984;5.088;2023-02-15T11:33:52;44.70;;;24.00;;
69627;SDS011;56850;51.984;5.088;2023-02-15T11:36:33;42.55;;;25.38;;
69627;SDS011;56850;51.984;5.088;2023-02-15T11:39:08;42.58;;;25.27;;
69627;SDS011;56850;51.984;5.088;2023-02-15T11:41:41;42.28;;;24.58;;
69627;SDS011;56850;51.984;5.088;2023-02-15T11:44:32;42.63;;;24.73;;
69627;SDS011;56850;51.984;5.088;2023-02-15T11:47:21;44.00;;;25.58;;
69627;SDS011;56850;51.984;5.088;2023-02-15T11:49:49;43.55;;;25.50;;
69627;SDS011;56850;51.984;5.088;2023-02-15T11:52:16;47.38;;;25.15;;
69627;SDS011;56850;51.984;5.088;2023-02-15T11:54:46;41.63;;;25.05;;
69627;SDS011;56850;51.984;5.088;2023-02-15T12:00:12;44.55;;;26.70;;
69627;SDS011;56850;51.984;5.088;2023-02-15T12:02:50;42.80;;;25.25;;
69627;SDS011;56850;51.984;5.088;2023-02-15T12:05:21;45.05;;;26.02;;
69627;SDS011;56850;51.984;5.088;2023-02-15T12:08:24;42.40;;;26.35;;
69627;SDS011;56850;51.984;5.088;2023-02-15T12:13:33;43.72;;;25.25;;
69627;SDS011;56850;51.984;5.088;2023-02-15T12:16:04;45.45;;;27.45;;
69627;SDS011;56850;51.984;5.088;2023-02-15T12:18:37;46.83;;;27.95;;
69627;SDS011;56850;51.984;5.088;2023-02-15T12:21:14;42.28;;;25.35;;
69627;SDS011;56850;51.984;5.088;2023-02-15T12:23:54;45.37;;;26.53;;
69627;SDS011;56850;51.984;5.088;2023-02-15T12:26:25;42.75;;;26.77;;
69627;SDS011;56850;51.984;5.088;2023-02-15T12:28:55;45.00;;;27.63;;
69627;SDS011;56850;51.984;5.088;2023-02-15T12:31:32;37.38;;;22.60;;
69627;SDS011;56850;51.984;5.088;2023-02-15T12:34:08;47.85;;;28.50;;
69627;SDS011;56850;51.984;5.088;2023-02-15T12:36:40;46.97;;;26.83;;
69627;SDS011;56850;51.984;5.088;2023-02-15T12:41:46;44.63;;;25.55;;
69627;SDS011;56850;51.984;5.088;2023-02-15T12:44:27;45.55;;;29.33;;
69627;SDS011;56850;51.984;5.088;2023-02-15T12:47:06;48.42;;;27.00;;
69627;SDS011;56850;51.984;5.088;2023-02-15T12:50:04;47.20;;;28.50;;
69627;SDS011;56850;51.984;5.088;2023-02-15T12:52:37;46.40;;;26.52;;
69627;SDS011;56850;51.984;5.088;2023-02-15T12:55:19;46.70;;;28.42;;
69627;SDS011;56850;51.984;5.088;2023-02-15T12:58:34;44.45;;;26.45;;
69627;SDS011;56850;51.984;5.088;2023-02-15T13:00:44;47.28;;;26.95;;
69627;SDS011;56850;51.984;5.088;2023-02-15T13:03:15;46.17;;;26.77;;
69627;SDS011;56850;51.984;5.088;2023-02-15T13:05:44;46.70;;;27.52;;
69627;SDS011;56850;51.984;5.088;2023-02-15T13:11:02;49.58;;;27.73;;
69627;SDS011;56850;51.984;5.088;2023-02-15T13:13:31;46.97;;;26.77;;
69627;SDS011;56850;51.984;5.088;2023-02-15T13:16:02;44.10;;;26.90;;
69627;SDS011;56850;51.984;5.088;2023-02-15T13:18:38;43.75;;;25.00;;
69627;SDS011;56850;51.984;5.088;2023-02-15T13:21:12;51.30;;;25.65;;
69627;SDS011;56850;51.984;5.088;2023-02-15T13:23:47;48.65;;;26.58;;
69627;SDS011;56850;51.984;5.088;2023-02-15T13:26:20;48.00;;;27.40;;
69627;SDS011;56850;51.984;5.088;2023-02-15T13:28:51;42.50;;;25.13;;
69627;SDS011;56850;51.984;5.088;2023-02-15T13:31:23;41.53;;;25.67;;
69627;SDS011;56850;51.984;5.088;2023-02-15T13:33:55;45.58;;;27.30;;
69627;SDS011;56850;51.984;5.088;2023-02-15T13:36:30;42.33;;;27.13;;
69627;SDS011;56850;51.984;5.088;2023-02-15T13:39:15;45.22;;;26.50;;
69627;SDS011;56850;51.984;5.088;2023-02-15T13:41:57;45.33;;;26.77;;
69627;SDS011;56850;51.984;5.088;2023-02-15T13:47:29;48.13;;;27.33;;
69627;SDS011;56850;51.984;5.088;2023-02-15T13:56:02;44.23;;;26.03;;
69627;SDS011;56850;51.984;5.088;2023-02-15T14:01:19;42.60;;;26.77;;
69627;SDS011;56850;51.984;5.088;2023-02-15T14:03:59;45.33;;;25.88;;
69627;SDS011;56850;51.984;5.088;2023-02-15T14:06:42;43.10;;;26.35;;
69627;SDS011;56850;51.984;5.088;2023-02-15T14:15:13;46.33;;;25.80;;
69627;SDS011;56850;51.984;5.088;2023-02-15T14:17:59;47.63;;;27.23;;
69627;SDS011;56850;51.984;5.088;2023-02-15T14:31:50;42.80;;;24.92;;
69627;SDS011;56850;51.984;5.088;2023-02-15T14:34:23;41.42;;;24.13;;
69627;SDS011;56850;51.984;5.088;2023-02-15T14:36:56;41.93;;;26.67;;
69627;SDS011;56850;51.984;5.088;2023-02-15T14:39:42;39.65;;;25.35;;
69627;SDS011;56850;51.984;5.088;2023-02-15T14:42:30;45.92;;;25.05;;
69627;SDS011;56850;51.984;5.088;2023-02-15T14:48:11;41.50;;;25.00;;
69627;SDS011;56850;51.984;5.088;2023-02-15T14:50:47;44.67;;;26.77;;
69627;SDS011;56850;51.984;5.088;2023-02-15T14:53:23;44.30;;;26.98;;
69627;SDS011;56850;51.984;5.088;2023-02-15T14:56:18;43.28;;;26.60;;
69627;SDS011;56850;51.984;5.088;2023-02-15T15:01:27;42.63;;;26.42;;
69627;SDS011;56850;51.984;5.088;2023-02-15T15:03:59;50.47;;;27.47;;
69627;SDS011;56850;51.984;5.088;2023-02-15T15:06:58;42.88;;;26.13;;
69627;SDS011;56850;51.984;5.088;2023-02-15T15:09:27;45.08;;;26.42;;
69627;SDS011;56850;51.984;5.088;2023-02-15T15:12:18;46.95;;;26.80;;
69627;SDS011;56850;51.984;5.088;2023-02-15T15:14:52;44.25;;;27.48;;
69627;SDS011;56850;51.984;5.088;2023-02-15T15:20:02;47.78;;;25.85;;
69627;SDS011;56850;51.984;5.088;2023-02-15T15:22:42;51.92;;;29.00;;
69627;SDS011;56850;51.984;5.088;2023-02-15T15:27:55;47.08;;;27.42;;
69627;SDS011;56850;51.984;5.088;2023-02-15T15:49:31;50.75;;;28.00;;
69627;SDS011;56850;51.984;5.088;2023-02-15T15:52:00;49.85;;;27.77;;
69627;SDS011;56850;51.984;5.088;2023-02-15T15:54:29;44.53;;;26.00;;
69627;SDS011;56850;51.984;5.088;2023-02-15T15:56:59;46.07;;;27.07;;
69627;SDS011;56850;51.984;5.088;2023-02-15T15:59:32;45.53;;;25.95;;
69627;SDS011;56850;51.984;5.088;2023-02-15T16:02:06;47.55;;;27.15;;
69627;SDS011;56850;51.984;5.088;2023-02-15T16:04:37;50.40;;;28.42;;
69627;SDS011;56850;51.984;5.088;2023-02-15T16:09:53;48.67;;;27.93;;
69627;SDS011;56850;51.984;5.088;2023-02-15T16:12:29;50.20;;;27.92;;
69627;SDS011;56850;51.984;5.088;2023-02-15T16:14:58;48.42;;;27.40;;
69627;SDS011;56850;51.984;5.088;2023-02-15T16:17:40;48.15;;;28.48;;
69627;SDS011;56850;51.984;5.088;2023-02-15T16:20:25;49.55;;;27.40;;
69627;SDS011;56850;51.984;5.088;2023-02-15T16:26:28;46.88;;;28.20;;
69627;SDS011;56850;51.984;5.088;2023-02-15T16:28:30;44.17;;;27.30;;
69627;SDS011;56850;51.984;5.088;2023-02-15T16:31:07;48.42;;;28.02;;
69627;SDS011;56850;51.984;5.088;2023-02-15T16:33:41;49.33;;;31.60;;
69627;SDS011;56850;51.984;5.088;2023-02-15T16:36:12;50.80;;;31.10;;
69627;SDS011;56850;51.984;5.088;2023-02-15T16:41:13;60.65;;;31.77;;
69627;SDS011;56850;51.984;5.088;2023-02-15T16:43:44;59.28;;;33.03;;
69627;SDS011;56850;51.984;5.088;2023-02-15T16:46:25;58.35;;;33.30;;
69627;SDS011;56850;51.984;5.088;2023-02-15T16:49:15;54.97;;;30.53;;
69627;SDS011;56850;51.984;5.088;2023-02-15T16:52:03;55.15;;;30.77;;
69627;SDS011;56850;51.984;5.088;2023-02-15T16:54:33;58.35;;;31.90;;
69627;SDS011;56850;51.984;5.088;2023-02-15T16:57:01;49.97;;;31.80;;
69627;SDS011;56850;51.984;5.088;2023-02-15T16:59:36;55.55;;;31.60;;
69627;SDS011;56850;51.984;5.088;2023-02-15T17:02:16;61.97;;;32.00;;
69627;SDS011;56850;51.984;5.088;2023-02-15T17:05:11;50.75;;;29.67;;
69627;SDS011;56850;51.984;5.088;2023-02-15T17:08:05;49.97;;;28.63;;
69627;SDS011;56850;51.984;5.088;2023-02-15T17:10:40;49.70;;;28.58;;
69627;SDS011;56850;51.984;5.088;2023-02-15T17:13:11;50.42;;;28.95;;
69627;SDS011;56850;51.984;5.088;2023-02-15T17:15:44;57.20;;;29.03;;
69627;SDS011;56850;51.984;5.088;2023-02-15T17:18:30;57.75;;;28.60;;
69627;SDS011;56850;51.984;5.088;2023-02-15T17:21:12;54.03;;;27.42;;
69627;SDS011;56850;51.984;5.088;2023-02-15T17:23:45;56.35;;;28.70;;
69627;SDS011;56850;51.984;5.088;2023-02-15T17:26:19;50.53;;;29.35;;
69627;SDS011;56850;51.984;5.088;2023-02-15T17:28:55;45.90;;;27.13;;
69627;SDS011;56850;51.984;5.088;2023-02-15T17:31:25;48.58;;;28.15;;